sensor_id;sensor_type;location;lat;lon;timestamp;pressure;altitude;pressure_sealevel;temperature;humidity
68456;BME280;55437;55.046;38.838;2023-04-29T00:01:29;99542.22;;;9.45;75.51
68456;BME280;55437;55.046;38.838;2023-04-29T00:03:55;99542.38;;;9.41;75.47
68456;BME280;55437;55.046;38.838;2023-04-29T00:06:20;99529.63;;;9.39;75.35
68456;BME280;55437;55.046;38.838;2023-04-29T00:08:46;99526.41;;;9.32;75.37
68456;BME280;55437;55.046;38.838;2023-04-29T00:11:13;99525.72;;;9.27;75.92
68456;BME280;55437;55.046;38.838;2023-04-29T00:13:39;99511.25;;;9.26;76.22
68456;BME280;55437;55.046;38.838;2023-04-29T00:16:06;99488.13;;;9.28;75.93
68456;BME280;55437;55.046;38.838;2023-04-29T00:18:32;99485.72;;;9.23;75.90
68456;BME280;55437;55.046;38.838;2023-04-29T00:20:58;99497.78;;;9.20;75.72
68456;BME280;55437;55.046;38.838;2023-04-29T00:23:24;99488.53;;;9.16;75.77
68456;BME280;55437;55.046;38.838;2023-04-29T00:25:49;99479.31;;;9.10;75.85
68456;BME280;55437;55.046;38.838;2023-04-29T00:28:18;99473.16;;;9.16;75.91
68456;BME280;55437;55.046;38.838;2023-04-29T00:30:50;99479.38;;;9.07;75.69
68456;BME280;55437;55.046;38.838;2023-04-29T00:33:16;99477.00;;;9.02;75.91
68456;BME280;55437;55.046;38.838;2023-04-29T00:35:42;99481.22;;;9.03;75.89
68456;BME280;55437;55.046;38.838;2023-04-29T00:38:07;99500.94;;;9.01;76.04
68456;BME280;55437;55.046;38.838;2023-04-29T00:40:33;99520.38;;;9.07;75.88
68456;BME280;55437;55.046;38.838;2023-04-29T00:43:01;99508.81;;;8.94;75.77
68456;BME280;55437;55.046;38.838;2023-04-29T00:45:27;99521.63;;;8.94;75.85
68456;BME280;55437;55.046;38.838;2023-04-29T00:47:52;99539.75;;;8.88;76.29
68456;BME280;55437;55.046;38.838;2023-04-29T00:50:18;99536.38;;;8.86;75.74
68456;BME280;55437;55.046;38.838;2023-04-29T00:52:44;99509.88;;;8.88;75.85
68456;BME280;55437;55.046;38.838;2023-04-29T00:55:10;99529.53;;;8.86;75.86
68456;BME280;55437;55.046;38.838;2023-04-29T00:57:37;99538.19;;;8.82;75.63
68456;BME280;55437;55.046;38.838;2023-04-29T01:00:04;99516.34;;;8.71;75.87
68456;BME280;55437;55.046;38.838;2023-04-29T01:02:32;99517.66;;;8.56;75.95
68456;BME280;55437;55.046;38.838;2023-04-29T01:04:58;99505.03;;;8.50;75.97
68456;BME280;55437;55.046;38.838;2023-04-29T01:07:51;99506.06;;;8.44;76.25
68456;BME280;55437;55.046;38.838;2023-04-29T01:10:32;99502.59;;;8.45;76.31
68456;BME280;55437;55.046;38.838;2023-04-29T01:13:11;99512.25;;;8.36;76.56
68456;BME280;55437;55.046;38.838;2023-04-29T01:15:56;99524.13;;;8.38;76.12
68456;BME280;55437;55.046;38.838;2023-04-29T01:18:29;99490.22;;;8.32;76.19
68456;BME280;55437;55.046;38.838;2023-04-29T01:20:57;99485.13;;;8.30;76.60
68456;BME280;55437;55.046;38.838;2023-04-29T01:23:26;99491.91;;;8.33;76.51
68456;BME280;55437;55.046;38.838;2023-04-29T01:25:52;99500.66;;;8.22;76.64
68456;BME280;55437;55.046;38.838;2023-04-29T01:28:54;99518.69;;;8.18;76.73
68456;BME280;55437;55.046;38.838;2023-04-29T01:31:35;99533.06;;;8.22;76.62
68456;BME280;55437;55.046;38.838;2023-04-29T01:37:18;99527.88;;;8.25;76.77
68456;BME280;55437;55.046;38.838;2023-04-29T01:42:59;99497.00;;;8.00;76.46
68456;BME280;55437;55.046;38.838;2023-04-29T01:45:26;99504.91;;;7.92;76.92
68456;BME280;55437;55.046;38.838;2023-04-29T01:47:53;99502.38;;;7.91;77.04
68456;BME280;55437;55.046;38.838;2023-04-29T01:50:23;99512.72;;;7.86;76.86
68456;BME280;55437;55.046;38.838;2023-04-29T01:52:48;99524.75;;;7.83;76.69
68456;BME280;55437;55.046;38.838;2023-04-29T01:55:14;99505.22;;;7.80;76.77
68456;BME280;55437;55.046;38.838;2023-04-29T01:57:51;99519.13;;;7.70;77.10
68456;BME280;55437;55.046;38.838;2023-04-29T02:00:37;99510.63;;;7.68;76.92
68456;BME280;55437;55.046;38.838;2023-04-29T02:03:04;99518.50;;;7.61;77.24
68456;BME280;55437;55.046;38.838;2023-04-29T02:05:37;99536.19;;;7.68;77.44
68456;BME280;55437;55.046;38.838;2023-04-29T02:08:04;99535.50;;;7.62;77.35
68456;BME280;55437;55.046;38.838;2023-04-29T02:10:35;99549.16;;;7.61;77.48
68456;BME280;55437;55.046;38.838;2023-04-29T02:13:11;99565.06;;;7.72;77.50
68456;BME280;55437;55.046;38.838;2023-04-29T02:15:39;99583.69;;;7.75;77.35
68456;BME280;55437;55.046;38.838;2023-04-29T02:18:04;99581.91;;;7.79;77.54
68456;BME280;55437;55.046;38.838;2023-04-29T02:20:31;99580.22;;;7.79;77.33
68456;BME280;55437;55.046;38.838;2023-04-29T02:22:56;99577.66;;;7.79;77.12
68456;BME280;55437;55.046;38.838;2023-04-29T02:25:22;99580.25;;;7.78;77.16
68456;BME280;55437;55.046;38.838;2023-04-29T02:27:48;99610.81;;;7.82;77.50
68456;BME280;55437;55.046;38.838;2023-04-29T02:30:14;99615.16;;;7.79;77.17
68456;BME280;55437;55.046;38.838;2023-04-29T02:32:40;99609.38;;;7.72;77.22
68456;BME280;55437;55.046;38.838;2023-04-29T02:35:06;99612.78;;;7.71;76.97
68456;BME280;55437;55.046;38.838;2023-04-29T02:37:33;99620.34;;;7.74;77.12
68456;BME280;55437;55.046;38.838;2023-04-29T02:40:00;99617.09;;;7.69;77.05
68456;BME280;55437;55.046;38.838;2023-04-29T02:42:26;99602.72;;;7.64;77.45
68456;BME280;55437;55.046;38.838;2023-04-29T02:44:51;99602.72;;;7.64;77.17
68456;BME280;55437;55.046;38.838;2023-04-29T02:47:17;99599.47;;;7.58;77.30
68456;BME280;55437;55.046;38.838;2023-04-29T02:49:44;99596.31;;;7.47;77.33
68456;BME280;55437;55.046;38.838;2023-04-29T02:52:10;99604.84;;;7.46;77.40
68456;BME280;55437;55.046;38.838;2023-04-29T02:54:37;99620.06;;;7.51;77.50
68456;BME280;55437;55.046;38.838;2023-04-29T02:57:03;99624.25;;;7.53;77.20
68456;BME280;55437;55.046;38.838;2023-04-29T02:59:29;99625.88;;;7.57;76.96
68456;BME280;55437;55.046;38.838;2023-04-29T03:01:55;99611.50;;;7.53;76.70
68456;BME280;55437;55.046;38.838;2023-04-29T03:04:22;99612.56;;;7.45;76.85
68456;BME280;55437;55.046;38.838;2023-04-29T03:06:48;99612.66;;;7.40;77.09
68456;BME280;55437;55.046;38.838;2023-04-29T03:09:14;99612.78;;;7.36;77.31
68456;BME280;55437;55.046;38.838;2023-04-29T03:11:39;99623.84;;;7.35;77.06
68456;BME280;55437;55.046;38.838;2023-04-29T03:14:06;99622.19;;;7.34;77.11
68456;BME280;55437;55.046;38.838;2023-04-29T03:16:32;99624.59;;;7.38;77.30
68456;BME280;55437;55.046;38.838;2023-04-29T03:18:58;99631.38;;;7.41;77.04
68456;BME280;55437;55.046;38.838;2023-04-29T03:21:23;99638.06;;;7.46;77.24
68456;BME280;55437;55.046;38.838;2023-04-29T03:23:53;99637.19;;;7.47;76.98
68456;BME280;55437;55.046;38.838;2023-04-29T03:26:25;99630.69;;;7.34;77.14
68456;BME280;55437;55.046;38.838;2023-04-29T03:28:51;99644.47;;;7.26;76.98
68456;BME280;55437;55.046;38.838;2023-04-29T03:31:17;99638.44;;;7.30;77.00
68456;BME280;55437;55.046;38.838;2023-04-29T03:33:45;99630.75;;;7.30;76.88
68456;BME280;55437;55.046;38.838;2023-04-29T03:36:11;99637.50;;;7.34;76.90
68456;BME280;55437;55.046;38.838;2023-04-29T03:38:58;99622.19;;;7.32;77.03
68456;BME280;55437;55.046;38.838;2023-04-29T03:41:25;99629.03;;;7.32;77.22
68456;BME280;55437;55.046;38.838;2023-04-29T03:43:53;99626.78;;;7.16;77.10
68456;BME280;55437;55.046;38.838;2023-04-29T03:46:20;99626.97;;;7.09;76.83
68456;BME280;55437;55.046;38.838;2023-04-29T03:48:46;99640.53;;;7.12;77.17
68456;BME280;55437;55.046;38.838;2023-04-29T03:51:12;99636.19;;;7.14;77.00
68456;BME280;55437;55.046;38.838;2023-04-29T03:53:38;99629.38;;;7.15;76.79
68456;BME280;55437;55.046;38.838;2023-04-29T03:56:05;99635.44;;;7.11;77.04
68456;BME280;55437;55.046;38.838;2023-04-29T03:58:31;99641.38;;;7.11;76.68
68456;BME280;55437;55.046;38.838;2023-04-29T04:00:57;99641.44;;;7.08;76.80
68456;BME280;55437;55.046;38.838;2023-04-29T04:03:30;99628.88;;;6.99;76.38
68456;BME280;55437;55.046;38.838;2023-04-29T04:05:58;99622.91;;;7.00;76.83
68456;BME280;55437;55.046;38.838;2023-04-29T04:08:24;99606.88;;;6.94;76.65
68456;BME280;55437;55.046;38.838;2023-04-29T04:10:54;99621.63;;;6.78;76.81
68456;BME280;55437;55.046;38.838;2023-04-29T04:13:34;99598.94;;;6.64;77.10
68456;BME280;55437;55.046;38.838;2023-04-29T04:16:00;99606.56;;;6.66;76.97
68456;BME280;55437;55.046;38.838;2023-04-29T04:18:26;99609.94;;;6.68;77.07
68456;BME280;55437;55.046;38.838;2023-04-29T04:20:52;99602.56;;;6.53;77.00
68456;BME280;55437;55.046;38.838;2023-04-29T04:23:18;99611.91;;;6.54;77.32
68456;BME280;55437;55.046;38.838;2023-04-29T04:25:47;99615.16;;;6.63;77.36
68456;BME280;55437;55.046;38.838;2023-04-29T04:28:46;99615.16;;;6.63;76.90
68456;BME280;55437;55.046;38.838;2023-04-29T04:31:21;99622.28;;;6.44;77.32
68456;BME280;55437;55.046;38.838;2023-04-29T04:33:47;99618.94;;;6.42;77.09
68456;BME280;55437;55.046;38.838;2023-04-29T04:36:13;99616.31;;;6.45;77.38
68456;BME280;55437;55.046;38.838;2023-04-29T04:38:39;99613.81;;;6.42;77.29
68456;BME280;55437;55.046;38.838;2023-04-29T04:41:09;99613.16;;;6.33;76.96
68456;BME280;55437;55.046;38.838;2023-04-29T04:43:38;99611.47;;;6.33;77.07
68456;BME280;55437;55.046;38.838;2023-04-29T04:46:12;99614.19;;;6.24;77.34
68456;BME280;55437;55.046;38.838;2023-04-29T04:48:49;99618.44;;;6.24;77.43
68456;BME280;55437;55.046;38.838;2023-04-29T04:51:15;99619.28;;;6.24;77.66
68456;BME280;55437;55.046;38.838;2023-04-29T04:53:42;99630.31;;;6.25;77.27
68456;BME280;55437;55.046;38.838;2023-04-29T04:56:17;99651.59;;;6.24;77.28
68456;BME280;55437;55.046;38.838;2023-04-29T04:58:43;99664.31;;;6.25;77.11
68456;BME280;55437;55.046;38.838;2023-04-29T05:01:09;99666.72;;;6.31;76.98
68456;BME280;55437;55.046;38.838;2023-04-29T05:03:35;99674.22;;;6.40;76.59
68456;BME280;55437;55.046;38.838;2023-04-29T05:06:01;99687.69;;;6.48;76.49
68456;BME280;55437;55.046;38.838;2023-04-29T05:08:28;99690.91;;;6.58;76.29
68456;BME280;55437;55.046;38.838;2023-04-29T05:10:57;99700.28;;;6.58;76.11
68456;BME280;55437;55.046;38.838;2023-04-29T05:13:23;99699.44;;;6.56;76.03
68456;BME280;55437;55.046;38.838;2023-04-29T05:15:50;99705.50;;;6.52;75.70
68456;BME280;55437;55.046;38.838;2023-04-29T05:18:20;99710.69;;;6.45;75.45
68456;BME280;55437;55.046;38.838;2023-04-29T05:20:48;99721.03;;;6.38;75.84
68456;BME280;55437;55.046;38.838;2023-04-29T05:23:15;99723.59;;;6.38;75.67
68456;BME280;55437;55.046;38.838;2023-04-29T05:25:43;99732.84;;;6.42;75.50
68456;BME280;55437;55.046;38.838;2023-04-29T05:28:09;99734.53;;;6.43;75.43
68456;BME280;55437;55.046;38.838;2023-04-29T05:30:38;99737.03;;;6.46;75.35
68456;BME280;55437;55.046;38.838;2023-04-29T05:33:05;99739.56;;;6.47;75.34
68456;BME280;55437;55.046;38.838;2023-04-29T05:35:31;99748.94;;;6.47;75.01
68456;BME280;55437;55.046;38.838;2023-04-29T05:37:58;99750.69;;;6.43;75.12
68456;BME280;55437;55.046;38.838;2023-04-29T05:40:29;99754.94;;;6.41;74.89
68456;BME280;55437;55.046;38.838;2023-04-29T05:43:14;99762.59;;;6.41;74.71
68456;BME280;55437;55.046;38.838;2023-04-29T05:45:45;99765.13;;;6.44;74.72
68456;BME280;55437;55.046;38.838;2023-04-29T05:48:11;99775.22;;;6.50;74.62
68456;BME280;55437;55.046;38.838;2023-04-29T05:50:37;99778.56;;;6.53;74.48
68456;BME280;55437;55.046;38.838;2023-04-29T05:53:03;99785.47;;;6.47;74.35
68456;BME280;55437;55.046;38.838;2023-04-29T05:55:29;99788.06;;;6.44;74.26
68456;BME280;55437;55.046;38.838;2023-04-29T05:57:55;99793.16;;;6.44;73.80
68456;BME280;55437;55.046;38.838;2023-04-29T06:00:40;99805.72;;;6.57;73.46
68456;BME280;55437;55.046;38.838;2023-04-29T06:03:25;99812.34;;;6.67;73.60
68456;BME280;55437;55.046;38.838;2023-04-29T06:05:58;99821.59;;;6.75;73.00
68456;BME280;55437;55.046;38.838;2023-04-29T06:08:50;99825.91;;;6.72;72.94
68456;BME280;55437;55.046;38.838;2023-04-29T06:11:21;99823.53;;;6.60;72.75
68456;BME280;55437;55.046;38.838;2023-04-29T06:13:46;99833.91;;;6.49;72.41
68456;BME280;55437;55.046;38.838;2023-04-29T06:16:13;99844.94;;;6.51;72.49
68456;BME280;55437;55.046;38.838;2023-04-29T06:18:38;99843.53;;;6.30;72.17
68456;BME280;55437;55.046;38.838;2023-04-29T06:21:04;99844.28;;;6.38;72.56
68456;BME280;55437;55.046;38.838;2023-04-29T06:23:30;99849.19;;;6.50;71.94
68456;BME280;55437;55.046;38.838;2023-04-29T06:26:00;99845.69;;;6.58;71.68
68456;BME280;55437;55.046;38.838;2023-04-29T06:28:26;99857.44;;;6.66;71.40
68456;BME280;55437;55.046;38.838;2023-04-29T06:30:53;99862.56;;;6.65;70.96
68456;BME280;55437;55.046;38.838;2023-04-29T06:33:22;99859.28;;;6.58;71.08
68456;BME280;55437;55.046;38.838;2023-04-29T06:35:48;99862.78;;;6.51;71.20
68456;BME280;55437;55.046;38.838;2023-04-29T06:38:33;99855.84;;;6.61;71.03
68456;BME280;55437;55.046;38.838;2023-04-29T06:41:18;99862.59;;;6.63;70.61
68456;BME280;55437;55.046;38.838;2023-04-29T06:47:12;99860.59;;;6.82;70.55
68456;BME280;55437;55.046;38.838;2023-04-29T06:49:46;99864.78;;;6.88;69.71
68456;BME280;55437;55.046;38.838;2023-04-29T06:55:15;99879.81;;;7.03;70.29
68456;BME280;55437;55.046;38.838;2023-04-29T06:57:42;99884.19;;;6.96;69.72
68456;BME280;55437;55.046;38.838;2023-04-29T07:00:08;99884.13;;;6.99;69.94
68456;BME280;55437;55.046;38.838;2023-04-29T07:02:34;99884.06;;;7.02;69.82
68456;BME280;55437;55.046;38.838;2023-04-29T07:05:01;99890.00;;;7.04;70.01
68456;BME280;55437;55.046;38.838;2023-04-29T07:07:29;99887.44;;;7.04;70.19
68456;BME280;55437;55.046;38.838;2023-04-29T07:09:56;99894.91;;;7.16;69.86
68456;BME280;55437;55.046;38.838;2023-04-29T07:12:25;99892.78;;;7.38;69.63
68456;BME280;55437;55.046;38.838;2023-04-29T07:14:53;99898.69;;;7.43;69.74
68456;BME280;55437;55.046;38.838;2023-04-29T07:17:19;99909.56;;;7.53;69.62
68456;BME280;55437;55.046;38.838;2023-04-29T07:19:46;99921.41;;;7.58;69.41
68456;BME280;55437;55.046;38.838;2023-04-29T07:22:13;99922.13;;;7.65;69.36
68456;BME280;55437;55.046;38.838;2023-04-29T07:24:40;99919.84;;;7.50;69.48
68456;BME280;55437;55.046;38.838;2023-04-29T07:27:06;99941.41;;;7.35;69.26
68456;BME280;55437;55.046;38.838;2023-04-29T07:29:32;99937.91;;;7.39;69.39
68456;BME280;55437;55.046;38.838;2023-04-29T07:31:58;99947.03;;;7.52;69.03
68456;BME280;55437;55.046;38.838;2023-04-29T07:34:24;99942.34;;;7.76;68.99
68456;BME280;55437;55.046;38.838;2023-04-29T07:36:50;99945.41;;;7.94;68.89
68456;BME280;55437;55.046;38.838;2023-04-29T07:39:16;99956.63;;;7.87;68.74
68456;BME280;55437;55.046;38.838;2023-04-29T07:41:46;99950.84;;;7.78;68.43
68456;BME280;55437;55.046;38.838;2023-04-29T07:44:11;99955.94;;;7.79;68.77
68456;BME280;55437;55.046;38.838;2023-04-29T07:46:37;99944.19;;;7.69;68.90
68456;BME280;55437;55.046;38.838;2023-04-29T07:49:03;99949.28;;;7.71;68.73
68456;BME280;55437;55.046;38.838;2023-04-29T07:51:31;99966.31;;;7.72;68.94
68456;BME280;55437;55.046;38.838;2023-04-29T07:53:57;99967.06;;;7.75;68.97
68456;BME280;55437;55.046;38.838;2023-04-29T07:56:23;99960.63;;;7.54;68.89
68456;BME280;55437;55.046;38.838;2023-04-29T07:58:49;99958.22;;;7.47;69.28
68456;BME280;55437;55.046;38.838;2023-04-29T08:01:15;99961.66;;;7.46;69.10
68456;BME280;55437;55.046;38.838;2023-04-29T08:03:41;99973.47;;;7.51;69.42
68456;BME280;55437;55.046;38.838;2023-04-29T08:06:11;99988.56;;;7.64;69.20
68456;BME280;55437;55.046;38.838;2023-04-29T08:08:36;99998.34;;;7.88;68.68
68456;BME280;55437;55.046;38.838;2023-04-29T08:11:02;100012.53;;;8.06;68.15
68456;BME280;55437;55.046;38.838;2023-04-29T08:13:29;100012.53;;;8.06;68.45
68456;BME280;55437;55.046;38.838;2023-04-29T08:15:54;100013.50;;;7.99;67.98
68456;BME280;55437;55.046;38.838;2023-04-29T08:18:20;100012.63;;;8.00;67.77
68456;BME280;55437;55.046;38.838;2023-04-29T08:20:47;100011.56;;;8.10;68.11
68456;BME280;55437;55.046;38.838;2023-04-29T08:23:14;100012.31;;;8.16;67.74
68456;BME280;55437;55.046;38.838;2023-04-29T08:25:41;100019.09;;;8.19;67.34
68456;BME280;55437;55.046;38.838;2023-04-29T08:28:07;100021.03;;;8.08;67.68
68456;BME280;55437;55.046;38.838;2023-04-29T08:30:37;100031.66;;;8.33;67.20
68456;BME280;55437;55.046;38.838;2023-04-29T08:33:03;100037.47;;;8.39;67.08
68456;BME280;55437;55.046;38.838;2023-04-29T08:35:28;100017.81;;;8.43;66.83
68456;BME280;55437;55.046;38.838;2023-04-29T08:37:58;100033.03;;;8.47;66.82
68456;BME280;55437;55.046;38.838;2023-04-29T08:40:26;100027.88;;;8.50;66.65
68456;BME280;55437;55.046;38.838;2023-04-29T08:42:53;100012.56;;;8.47;66.42
68456;BME280;55437;55.046;38.838;2023-04-29T08:45:22;100015.63;;;8.64;66.27
68456;BME280;55437;55.046;38.838;2023-04-29T08:47:49;100018.78;;;8.77;65.98
68456;BME280;55437;55.046;38.838;2023-04-29T08:50:15;100033.28;;;8.77;66.19
68456;BME280;55437;55.046;38.838;2023-04-29T08:52:42;100029.81;;;8.81;66.11
68456;BME280;55437;55.046;38.838;2023-04-29T08:55:08;100044.38;;;8.77;66.33
68456;BME280;55437;55.046;38.838;2023-04-29T08:57:38;100046.66;;;8.89;65.68
68456;BME280;55437;55.046;38.838;2023-04-29T09:00:09;100055.47;;;8.78;66.00
68456;BME280;55437;55.046;38.838;2023-04-29T09:02:50;100061.38;;;8.81;65.62
68456;BME280;55437;55.046;38.838;2023-04-29T09:05:20;100067.25;;;8.85;65.20
68456;BME280;55437;55.046;38.838;2023-04-29T09:07:47;100060.69;;;8.72;65.43
68456;BME280;55437;55.046;38.838;2023-04-29T09:10:13;100073.25;;;8.84;65.58
68456;BME280;55437;55.046;38.838;2023-04-29T09:12:40;100074.81;;;8.91;65.13
68456;BME280;55437;55.046;38.838;2023-04-29T09:15:07;100077.91;;;9.05;64.83
68456;BME280;55437;55.046;38.838;2023-04-29T09:17:46;100067.81;;;9.36;64.56
68456;BME280;55437;55.046;38.838;2023-04-29T09:23:03;100078.88;;;9.38;64.30
68456;BME280;55437;55.046;38.838;2023-04-29T09:25:29;100080.34;;;9.48;63.89
68456;BME280;55437;55.046;38.838;2023-04-29T09:27:56;100095.63;;;9.53;63.55
68456;BME280;55437;55.046;38.838;2023-04-29T09:30:22;100108.03;;;9.32;63.39
68456;BME280;55437;55.046;38.838;2023-04-29T09:33:06;100116.19;;;9.50;63.78
68456;BME280;55437;55.046;38.838;2023-04-29T09:35:32;100131.63;;;9.47;63.59
68456;BME280;55437;55.046;38.838;2023-04-29T09:38:17;100128.50;;;9.71;62.90
68456;BME280;55437;55.046;38.838;2023-04-29T09:40:43;100125.75;;;9.79;63.06
68456;BME280;55437;55.046;38.838;2023-04-29T09:43:16;100115.88;;;9.63;62.82
68456;BME280;55437;55.046;38.838;2023-04-29T09:45:45;100116.25;;;9.82;62.18
68456;BME280;55437;55.046;38.838;2023-04-29T09:48:30;100123.16;;;9.80;61.99
68456;BME280;55437;55.046;38.838;2023-04-29T09:51:14;100134.56;;;9.67;62.02
68456;BME280;55437;55.046;38.838;2023-04-29T09:53:40;100119.13;;;9.70;61.52
68456;BME280;55437;55.046;38.838;2023-04-29T09:56:06;100124.47;;;9.61;61.50
68456;BME280;55437;55.046;38.838;2023-04-29T09:58:33;100122.59;;;9.67;61.17
68456;BME280;55437;55.046;38.838;2023-04-29T10:04:07;100121.63;;;9.73;61.18
68456;BME280;55437;55.046;38.838;2023-04-29T10:06:37;100131.16;;;9.66;61.37
68456;BME280;55437;55.046;38.838;2023-04-29T10:09:06;100154.28;;;9.65;61.39
68456;BME280;55437;55.046;38.838;2023-04-29T10:11:33;100162.75;;;9.30;61.71
68456;BME280;55437;55.046;38.838;2023-04-29T10:14:03;100163.19;;;9.09;62.24
68456;BME280;55437;55.046;38.838;2023-04-29T10:22:39;100157.63;;;9.67;61.24
68456;BME280;55437;55.046;38.838;2023-04-29T10:25:06;100153.41;;;10.01;61.00
68456;BME280;55437;55.046;38.838;2023-04-29T10:27:36;100167.97;;;10.36;60.02
68456;BME280;55437;55.046;38.838;2023-04-29T10:30:02;100191.69;;;10.44;59.19
68456;BME280;55437;55.046;38.838;2023-04-29T10:32:30;100174.06;;;10.31;59.52
68456;BME280;55437;55.046;38.838;2023-04-29T10:35:19;100175.09;;;10.25;59.75
68456;BME280;55437;55.046;38.838;2023-04-29T10:37:48;100166.06;;;10.43;59.24
68456;BME280;55437;55.046;38.838;2023-04-29T10:40:21;100176.59;;;10.32;58.96
68456;BME280;55437;55.046;38.838;2023-04-29T10:42:51;100188.69;;;10.27;58.97
68456;BME280;55437;55.046;38.838;2023-04-29T10:45:25;100196.00;;;10.08;59.62
68456;BME280;55437;55.046;38.838;2023-04-29T10:50:34;100213.13;;;10.06;59.33
68456;BME280;55437;55.046;38.838;2023-04-29T10:53:01;100209.47;;;10.18;59.52
68456;BME280;55437;55.046;38.838;2023-04-29T10:55:27;100207.44;;;10.31;59.25
68456;BME280;55437;55.046;38.838;2023-04-29T10:57:54;100202.28;;;10.32;59.05
68456;BME280;55437;55.046;38.838;2023-04-29T11:00:25;100211.94;;;10.23;59.60
68456;BME280;55437;55.046;38.838;2023-04-29T11:02:55;100213.50;;;9.91;59.70
68456;BME280;55437;55.046;38.838;2023-04-29T11:05:33;100221.84;;;9.62;59.67
68456;BME280;55437;55.046;38.838;2023-04-29T11:11:16;100229.44;;;9.67;59.76
68456;BME280;55437;55.046;38.838;2023-04-29T11:13:44;100215.50;;;9.79;59.11
68456;BME280;55437;55.046;38.838;2023-04-29T11:16:11;100213.78;;;9.79;59.10
68456;BME280;55437;55.046;38.838;2023-04-29T11:19:06;100211.88;;;9.89;58.57
68456;BME280;55437;55.046;38.838;2023-04-29T11:21:36;100218.44;;;10.00;58.38
68456;BME280;55437;55.046;38.838;2023-04-29T11:24:03;100226.91;;;10.02;58.37
68456;BME280;55437;55.046;38.838;2023-04-29T11:32:01;100233.91;;;10.33;57.50
68456;BME280;55437;55.046;38.838;2023-04-29T11:34:27;100223.13;;;10.53;56.97
68456;BME280;55437;55.046;38.838;2023-04-29T11:36:53;100210.66;;;10.73;56.73
68456;BME280;55437;55.046;38.838;2023-04-29T11:39:37;100208.75;;;10.79;56.37
68456;BME280;55437;55.046;38.838;2023-04-29T11:42:05;100200.88;;;10.86;55.94
68456;BME280;55437;55.046;38.838;2023-04-29T11:44:33;100192.31;;;10.87;55.09
68456;BME280;55437;55.046;38.838;2023-04-29T11:47:07;100199.34;;;10.78;54.83
68456;BME280;55437;55.046;38.838;2023-04-29T11:49:33;100200.38;;;10.73;54.62
68456;BME280;55437;55.046;38.838;2023-04-29T11:52:00;100210.94;;;10.62;54.65
68456;BME280;55437;55.046;38.838;2023-04-29T11:54:26;100208.41;;;10.61;54.60
68456;BME280;55437;55.046;38.838;2023-04-29T11:56:53;100206.97;;;10.81;54.78
68456;BME280;55437;55.046;38.838;2023-04-29T11:59:20;100204.91;;;10.94;55.20
68456;BME280;55437;55.046;38.838;2023-04-29T12:01:48;100210.47;;;10.79;54.94
68456;BME280;55437;55.046;38.838;2023-04-29T12:04:33;100206.09;;;10.82;54.12
68456;BME280;55437;55.046;38.838;2023-04-29T12:07:01;100215.53;;;10.82;54.20
68456;BME280;55437;55.046;38.838;2023-04-29T12:09:28;100214.94;;;11.03;53.91
68456;BME280;55437;55.046;38.838;2023-04-29T12:11:54;100213.75;;;11.15;54.27
68456;BME280;55437;55.046;38.838;2023-04-29T12:14:20;100203.47;;;11.15;54.49
68456;BME280;55437;55.046;38.838;2023-04-29T12:16:46;100195.72;;;11.16;54.32
68456;BME280;55437;55.046;38.838;2023-04-29T12:19:12;100202.75;;;11.39;53.96
68456;BME280;55437;55.046;38.838;2023-04-29T12:21:47;100212.44;;;11.31;53.85
68456;BME280;55437;55.046;38.838;2023-04-29T12:24:13;100201.63;;;11.20;53.98
68456;BME280;55437;55.046;38.838;2023-04-29T12:26:39;100210.63;;;11.04;54.27
68456;BME280;55437;55.046;38.838;2023-04-29T12:29:09;100205.69;;;10.98;54.16
68456;BME280;55437;55.046;38.838;2023-04-29T12:31:35;100206.53;;;10.98;54.37
68456;BME280;55437;55.046;38.838;2023-04-29T12:34:30;100202.09;;;11.03;54.36
68456;BME280;55437;55.046;38.838;2023-04-29T12:37:00;100196.94;;;11.03;54.45
68456;BME280;55437;55.046;38.838;2023-04-29T12:39:27;100193.94;;;10.88;54.20
68456;BME280;55437;55.046;38.838;2023-04-29T12:42:00;100192.84;;;10.98;53.58
68456;BME280;55437;55.046;38.838;2023-04-29T12:44:35;100196.72;;;11.11;53.64
68456;BME280;55437;55.046;38.838;2023-04-29T12:47:11;100212.56;;;11.27;53.53
68456;BME280;55437;55.046;38.838;2023-04-29T12:49:45;100215.94;;;11.29;53.16
68456;BME280;55437;55.046;38.838;2023-04-29T12:52:11;100219.03;;;11.40;53.11
68456;BME280;55437;55.046;38.838;2023-04-29T12:54:38;100227.47;;;11.45;52.77
68456;BME280;55437;55.046;38.838;2023-04-29T12:57:11;100219.22;;;11.34;52.62
68456;BME280;55437;55.046;38.838;2023-04-29T12:59:37;100204.75;;;11.30;53.25
68456;BME280;55437;55.046;38.838;2023-04-29T13:02:03;100203.09;;;11.29;53.06
68456;BME280;55437;55.046;38.838;2023-04-29T13:04:30;100204.88;;;11.25;52.54
68456;BME280;55437;55.046;38.838;2023-04-29T13:07:14;100210.22;;;11.19;52.11
68456;BME280;55437;55.046;38.838;2023-04-29T13:09:40;100212.31;;;11.05;52.15
68456;BME280;55437;55.046;38.838;2023-04-29T13:12:06;100204.13;;;10.92;52.66
68456;BME280;55437;55.046;38.838;2023-04-29T13:14:33;100192.16;;;10.91;52.95
68456;BME280;55437;55.046;38.838;2023-04-29T13:16:59;100196.25;;;10.98;52.90
68456;BME280;55437;55.046;38.838;2023-04-29T13:19:25;100201.31;;;11.00;53.22
68456;BME280;55437;55.046;38.838;2023-04-29T13:21:51;100201.09;;;11.09;53.12
68456;BME280;55437;55.046;38.838;2023-04-29T13:24:17;100201.63;;;11.20;53.36
68456;BME280;55437;55.046;38.838;2023-04-29T13:26:44;100197.69;;;11.36;53.05
68456;BME280;55437;55.046;38.838;2023-04-29T13:29:10;100199.91;;;11.48;52.60
68456;BME280;55437;55.046;38.838;2023-04-29T13:31:36;100194.72;;;11.50;52.68
68456;BME280;55437;55.046;38.838;2023-04-29T13:34:03;100207.78;;;11.44;52.87
68456;BME280;55437;55.046;38.838;2023-04-29T13:36:29;100209.78;;;11.34;53.19
68456;BME280;55437;55.046;38.838;2023-04-29T13:38:54;100209.59;;;11.40;52.75
68456;BME280;55437;55.046;38.838;2023-04-29T13:41:24;100203.88;;;11.31;52.73